Victory — E5U2349 — position and weather

sailwx.info

Track history (hours):
 
Tides and Currents Weather Stations Pressure Air Temp Water Temp Dewpoint Dewpoint Depression Visibility Wind Speed Wind Dir Waves Ship Positions

Victory

Last reported at 2015-Jul-30 12:12 UTC. Time now 2015-Jul-30 16:16 UTC.
Position N 44°06' E 008°24'.

Length 51 m; draft 3 m.

Type: Pleasure craft. MMSI: 518399000.

Date/timePositionNaut miles runAvg speedWind from/ knotsBaromVisibWave heightAir tempDewpointWater temp
2015-Jul-30 12:12N 44°06' E 008°24'914.8
2015-Jul-30 11:33N 44°13' E 008°33'1414.2
2015-Jul-30 10:33N 44°24' E 008°47'3 2.7
2015-Jul-30 09:31N 44°25' E 008°50'0 0.0
2015-Jul-30 08:31N 44°25' E 008°50'0 0.0
2015-Jul-30 07:31N 44°25' E 008°50'0 0.0
2015-Jul-30 06:31N 44°25' E 008°50'0 0.0
2015-Jul-30 05:31N 44°25' E 008°50'0 0.0
2015-Jul-30 04:31N 44°25' E 008°50'0 0.0
2015-Jul-30 03:31N 44°25' E 008°50'0 0.0
2015-Jul-30 02:31N 44°25' E 008°50'0 0.0
2015-Jul-30 01:31N 44°25' E 008°50'0 0.0
2015-Jul-30 00:31N 44°25' E 008°50'0 0.0
2015-Jul-29 23:25N 44°25' E 008°50'0 0.0
2015-Jul-29 22:31N 44°25' E 008°50'0 0.0
2015-Jul-29 21:31N 44°25' E 008°50'0 0.0
2015-Jul-29 20:31N 44°25' E 008°50'0 0.0
2015-Jul-29 19:31N 44°25' E 008°50'0 0.0
2015-Jul-29 18:31N 44°25' E 008°50'0 0.0
2015-Jul-29 17:31N 44°25' E 008°50'0 0.0
2015-Jul-29 16:31N 44°25' E 008°50'0 0.0
2015-Jul-29 15:31N 44°25' E 008°50'0 0.0
2015-Jul-29 14:31N 44°25' E 008°50'0 0.0
2015-Jul-29 13:31N 44°25' E 008°50'0 0.0
2015-Jul-29 12:31N 44°25' E 008°50'0 0.0
2015-Jul-29 11:31N 44°25' E 008°50'0 0.0
2015-Jul-29 10:31N 44°25' E 008°50'0 0.0
2015-Jul-29 09:31N 44°25' E 008°50'0 0.0
2015-Jul-29 08:31N 44°25' E 008°50'0 0.0
2015-Jul-29 07:31N 44°25' E 008°50'0 0.0
2015-Jul-29 06:31N 44°25' E 008°50'0 0.0
2015-Jul-29 05:31N 44°25' E 008°50'0 0.0
2015-Jul-29 04:31N 44°25' E 008°50'0 0.0
2015-Jul-29 03:31N 44°25' E 008°50'0 0.0
2015-Jul-29 02:31N 44°25' E 008°50'0 0.0
2015-Jul-29 01:31N 44°25' E 008°50'0 0.0
2015-Jul-29 00:31N 44°25' E 008°50'0 0.0
2015-Jul-28 23:31N 44°25' E 008°50'0 0.0
2015-Jul-28 22:31N 44°25' E 008°50'0 0.0
2015-Jul-28 21:31N 44°25' E 008°50'0 0.0
2015-Jul-28 20:25N 44°25' E 008°50'0 0.0
2015-Jul-28 19:31N 44°25' E 008°50'0 0.0
2015-Jul-28 18:31N 44°25' E 008°50'0 0.0
2015-Jul-28 17:31N 44°25' E 008°50'0 0.0
2015-Jul-28 16:31N 44°25' E 008°50'0 0.0
2015-Jul-28 15:31N 44°25' E 008°50'0 0.0
2015-Jul-28 14:33N 44°25' E 008°50'0 0.0
2015-Jul-28 13:33N 44°25' E 008°50'5 5.1
2015-Jul-28 12:33N 44°20' E 008°50'1212.0
2015-Jul-28 11:34N 44°13' E 009°03'1414.0
2015-Jul-28 10:34N 44°05' E 009°19'1413.8
2015-Jul-28 09:34N 43°55' E 009°33'1413.5
2015-Jul-28 08:34N 43°46' E 009°46'1313.3
2015-Jul-28 07:33N 43°35' E 009°57'1313.2
2015-Jul-28 06:33N 43°23' E 010°06'4113.2
2015-Jul-28 03:28N 42°45' E 010°25'0 0.1
2015-Jul-27 22:30N 42°45' E 010°25'185 5.4
2015-Jul-26 12:28N 40°49' E 013°39'1213.5
2015-Jul-26 11:33N 40°48' E 013°55'1313.4
2015-Jul-26 10:33N 40°47' E 014°12'2 1.0
2015-Jul-26 08:12N 40°49' E 014°14'913.8
2015-Jul-26 07:34N 40°41' E 014°16'9 0.2
2015-Jul-24 13:33N 40°34' E 014°26'8 0.3
2015-Jul-23 15:26N 40°42' E 014°29'3 1.1
2015-Jul-23 12:33N 40°41' E 014°25'  
Track history (hours):
 
Tides and Currents Weather Stations Pressure Air Temp Water Temp Dewpoint Dewpoint Depression Visibility Wind Speed Wind Dir Waves Ship Positions

Victory

Last reported at 2015-Jul-30 12:12 UTC. Time now 2015-Jul-30 16:16 UTC.
Position N 44°06' E 008°24'.

Length 51 m; draft 3 m.

Type: Pleasure craft. MMSI: 518399000.

Date/timePositionNaut miles runAvg speedWind from/ knotsBaromVisibWave heightAir tempDewpointWater temp
2015-Jul-30 12:12N 44°06' E 008°24'914.8
2015-Jul-30 11:33N 44°13' E 008°33'1414.2
2015-Jul-30 10:33N 44°24' E 008°47'3 2.7
2015-Jul-30 09:31N 44°25' E 008°50'0 0.0
2015-Jul-30 08:31N 44°25' E 008°50'0 0.0
2015-Jul-30 07:31N 44°25' E 008°50'0 0.0
2015-Jul-30 06:31N 44°25' E 008°50'0 0.0
2015-Jul-30 05:31N 44°25' E 008°50'0 0.0
2015-Jul-30 04:31N 44°25' E 008°50'0 0.0
2015-Jul-30 03:31N 44°25' E 008°50'0 0.0
2015-Jul-30 02:31N 44°25' E 008°50'0 0.0
2015-Jul-30 01:31N 44°25' E 008°50'0 0.0
2015-Jul-30 00:31N 44°25' E 008°50'0 0.0
2015-Jul-29 23:25N 44°25' E 008°50'0 0.0
2015-Jul-29 22:31N 44°25' E 008°50'0 0.0
2015-Jul-29 21:31N 44°25' E 008°50'0 0.0
2015-Jul-29 20:31N 44°25' E 008°50'0 0.0
2015-Jul-29 19:31N 44°25' E 008°50'0 0.0
2015-Jul-29 18:31N 44°25' E 008°50'0 0.0
2015-Jul-29 17:31N 44°25' E 008°50'0 0.0
2015-Jul-29 16:31N 44°25' E 008°50'0 0.0
2015-Jul-29 15:31N 44°25' E 008°50'0 0.0
2015-Jul-29 14:31N 44°25' E 008°50'0 0.0
2015-Jul-29 13:31N 44°25' E 008°50'0 0.0
2015-Jul-29 12:31N 44°25' E 008°50'0 0.0
2015-Jul-29 11:31N 44°25' E 008°50'0 0.0
2015-Jul-29 10:31N 44°25' E 008°50'0 0.0
2015-Jul-29 09:31N 44°25' E 008°50'0 0.0
2015-Jul-29 08:31N 44°25' E 008°50'0 0.0
2015-Jul-29 07:31N 44°25' E 008°50'0 0.0
2015-Jul-29 06:31N 44°25' E 008°50'0 0.0
2015-Jul-29 05:31N 44°25' E 008°50'0 0.0
2015-Jul-29 04:31N 44°25' E 008°50'0 0.0
2015-Jul-29 03:31N 44°25' E 008°50'0 0.0
2015-Jul-29 02:31N 44°25' E 008°50'0 0.0
2015-Jul-29 01:31N 44°25' E 008°50'0 0.0
2015-Jul-29 00:31N 44°25' E 008°50'0 0.0
2015-Jul-28 23:31N 44°25' E 008°50'0 0.0
2015-Jul-28 22:31N 44°25' E 008°50'0 0.0
2015-Jul-28 21:31N 44°25' E 008°50'0 0.0
2015-Jul-28 20:25N 44°25' E 008°50'0 0.0
2015-Jul-28 19:31N 44°25' E 008°50'0 0.0
2015-Jul-28 18:31N 44°25' E 008°50'0 0.0
2015-Jul-28 17:31N 44°25' E 008°50'0 0.0
2015-Jul-28 16:31N 44°25' E 008°50'0 0.0
2015-Jul-28 15:31N 44°25' E 008°50'0 0.0
2015-Jul-28 14:33N 44°25' E 008°50'0 0.0
2015-Jul-28 13:33N 44°25' E 008°50'5 5.1
2015-Jul-28 12:33N 44°20' E 008°50'1212.0
2015-Jul-28 11:34N 44°13' E 009°03'1414.0
2015-Jul-28 10:34N 44°05' E 009°19'1413.8
2015-Jul-28 09:34N 43°55' E 009°33'1413.5
2015-Jul-28 08:34N 43°46' E 009°46'1313.3
2015-Jul-28 07:33N 43°35' E 009°57'1313.2
2015-Jul-28 06:33N 43°23' E 010°06'4113.2
2015-Jul-28 03:28N 42°45' E 010°25'0 0.1
2015-Jul-27 22:30N 42°45' E 010°25'185 5.4
2015-Jul-26 12:28N 40°49' E 013°39'1213.5
2015-Jul-26 11:33N 40°48' E 013°55'1313.4
2015-Jul-26 10:33N 40°47' E 014°12'2 1.0
2015-Jul-26 08:12N 40°49' E 014°14'913.8
2015-Jul-26 07:34N 40°41' E 014°16'9 0.2
2015-Jul-24 13:33N 40°34' E 014°26'8 0.3
2015-Jul-23 15:26N 40°42' E 014°29'3 1.1
2015-Jul-23 12:33N 40°41' E 014°25'  

Dump ship's entire track history